Time;durP1;ratioP1;P1;durP2;ratioP2;P2;SDS_P1;SDS_P2;PMS_P1;PMS_P2;Temp;Humidity;BMP_temperature;BMP_pressure;BME280_temperature;BME280_humidity;BME280_pressure;Samples;Min_cycle;Max_cycle;Signal;HPM_P1;HPM_P2
2023/05/04 00:02:00;;;;;;;11.57;10.00;;;18.80;43.00;;;;;;5130067;27;20167;-78
2023/05/04 00:04:25;;;;;;;10.13;9.03;;;18.80;43.00;;;;;;5129704;27;20540;-78
2023/05/04 00:06:51;;;;;;;11.90;9.40;;;18.80;43.00;;;;;;5129974;27;20925;-77
2023/05/04 00:09:17;;;;;;;9.87;8.73;;;18.80;43.10;;;;;;5110707;27;20171;-77
2023/05/04 00:11:42;;;;;;;11.07;9.43;;;18.80;43.00;;;;;;5110877;27;20681;-76
2023/05/04 00:14:08;;;;;;;11.07;9.77;;;18.80;43.10;;;;;;5112154;27;20175;-76
2023/05/04 00:16:35;;;;;;;11.60;9.77;;;18.80;43.00;;;;;;5129168;27;20249;-75
2023/05/04 00:19:00;;;;;;;10.77;9.30;;;18.80;42.90;;;;;;5111511;27;20208;-76
2023/05/04 00:21:26;;;;;;;9.90;8.43;;;18.80;43.00;;;;;;5111501;27;20171;-77
2023/05/04 00:23:52;;;;;;;10.97;9.70;;;18.80;43.00;;;;;;5129378;27;20533;-75
2023/05/04 00:26:17;;;;;;;12.00;10.10;;;18.80;43.00;;;;;;5131161;27;20517;-75
2023/05/04 00:28:43;;;;;;;10.30;8.97;;;18.80;42.80;;;;;;5110730;27;20238;-78
2023/05/04 00:31:09;;;;;;;10.23;9.10;;;18.80;43.00;;;;;;5110697;27;20308;-75
2023/05/04 00:33:34;;;;;;;11.30;10.10;;;18.80;42.80;;;;;;5129258;27;20167;-78
2023/05/04 00:36:02;;;;;;;10.50;8.93;;;18.70;42.80;;;;;;5129387;27;20714;-78
2023/05/04 00:38:28;;;;;;;11.50;10.03;;;18.70;42.80;;;;;;5129488;27;20178;-76
2023/05/04 00:40:54;;;;;;;10.43;9.33;;;18.70;42.80;;;;;;5109473;27;20200;-77
2023/05/04 00:43:20;;;;;;;11.23;10.00;;;18.70;42.80;;;;;;5108436;27;20214;-78
2023/05/04 00:45:46;;;;;;;11.00;9.27;;;18.70;42.50;;;;;;5108310;27;20207;-78
2023/05/04 00:48:12;;;;;;;11.03;9.40;;;18.70;42.80;;;;;;5108045;27;20231;-76
2023/05/04 00:50:38;;;;;;;9.97;8.87;;;18.70;42.70;;;;;;5129701;27;20649;-78
2023/05/04 00:53:10;;;;;;;10.33;8.70;;;18.70;42.60;;;;;;5130471;27;20190;-74
2023/05/04 00:55:39;;;;;;;11.27;9.33;;;18.70;42.40;;;;;;5110413;28;20251;-77
2023/05/04 00:58:06;;;;;;;10.03;9.00;;;18.70;42.70;;;;;;5128912;27;20639;-76
2023/05/04 01:00:32;;;;;;;10.67;9.53;;;18.70;42.60;;;;;;5109079;28;20183;-78
2023/05/04 01:02:58;;;;;;;12.00;9.63;;;18.70;42.40;;;;;;5129403;27;20186;-75
2023/05/04 01:05:29;;;;;;;9.80;8.40;;;18.70;42.60;;;;;;5130874;28;20194;-77
2023/05/04 01:08:06;;;;;;;10.83;9.10;;;18.70;42.40;;;;;;5129203;28;20170;-77
2023/05/04 01:10:48;;;;;;;10.50;8.37;;;18.70;42.70;;;;;;5110286;28;20183;-74
2023/05/04 01:13:15;;;;;;;10.10;8.67;;;18.70;43.00;;;;;;5110079;28;20194;-74
2023/05/04 01:15:41;;;;;;;9.60;8.60;;;18.70;42.40;;;;;;5110515;28;20195;-77
2023/05/04 01:18:07;;;;;;;9.73;8.67;;;18.70;42.50;;;;;;5109835;28;20554;-74
2023/05/04 01:20:33;;;;;;;9.47;8.37;;;18.70;42.50;;;;;;5110589;28;20517;-76
2023/05/04 01:22:59;;;;;;;11.53;9.30;;;18.70;42.50;;;;;;5130048;28;20160;-76
2023/05/04 01:25:32;;;;;;;10.03;8.77;;;18.70;42.40;;;;;;5110391;28;20210;-76
2023/05/04 01:28:10;;;;;;;9.23;8.10;;;18.60;42.50;;;;;;5128129;28;20186;-75
2023/05/04 01:30:42;;;;;;;9.43;8.10;;;18.70;42.40;;;;;;5128388;28;20179;-75
2023/05/04 01:33:08;;;;;;;9.17;7.77;;;18.60;42.30;;;;;;5128551;28;20524;-77
2023/05/04 01:35:34;;;;;;;9.47;8.00;;;18.60;42.60;;;;;;5108149;28;20187;-77
2023/05/04 01:38:00;;;;;;;10.13;8.40;;;18.60;42.10;;;;;;5129505;28;20187;-76
2023/05/04 01:40:26;;;;;;;9.20;7.90;;;18.60;42.20;;;;;;5109369;28;20185;-75
2023/05/04 01:42:52;;;;;;;9.60;8.03;;;18.60;42.30;;;;;;5109909;28;20266;-74
2023/05/04 01:45:17;;;;;;;9.37;8.30;;;18.60;42.00;;;;;;5129920;27;20215;-77
2023/05/04 01:47:43;;;;;;;8.73;7.83;;;18.60;42.10;;;;;;5132110;27;20222;-78
2023/05/04 01:50:09;;;;;;;9.90;8.50;;;18.60;42.20;;;;;;5113855;27;20183;-77
2023/05/04 01:52:35;;;;;;;9.47;8.40;;;18.60;42.10;;;;;;5131223;27;20583;-76
2023/05/04 01:55:00;;;;;;;10.17;8.60;;;18.60;42.30;;;;;;5113999;27;20696;-74
2023/05/04 01:57:26;;;;;;;8.47;7.57;;;18.60;42.00;;;;;;5131567;27;20175;-78
2023/05/04 01:59:52;;;;;;;10.10;8.70;;;18.60;42.00;;;;;;5132684;27;20167;-75
2023/05/04 02:02:17;;;;;;;8.97;8.00;;;18.60;42.50;;;;;;5115146;27;20623;-75
2023/05/04 02:04:43;;;;;;;8.43;7.47;;;18.60;42.10;;;;;;5113595;27;20195;-77
2023/05/04 02:07:08;;;;;;;8.03;7.23;;;18.50;42.10;;;;;;5131795;27;20631;-77
2023/05/04 02:09:35;;;;;;;8.67;7.30;;;18.50;42.10;;;;;;5113118;27;20228;-76
2023/05/04 02:12:01;;;;;;;8.57;7.17;;;18.50;42.00;;;;;;5113698;27;20561;-76
2023/05/04 02:14:27;;;;;;;10.80;8.17;;;18.50;42.00;;;;;;5133112;27;20171;-78
2023/05/04 02:16:53;;;;;;;9.17;7.83;;;18.50;42.00;;;;;;5113251;27;20179;-77
2023/05/04 02:19:18;;;;;;;9.53;7.63;;;18.50;42.00;;;;;;5113287;27;20202;-77
2023/05/04 02:21:44;;;;;;;8.37;7.43;;;18.50;42.20;;;;;;5112660;27;20167;-77
2023/05/04 02:24:10;;;;;;;8.73;7.53;;;18.50;42.10;;;;;;5132028;27;20663;-74
2023/05/04 02:26:36;;;;;;;8.90;7.77;;;18.50;42.00;;;;;;5111765;27;20236;-78
2023/05/04 02:29:02;;;;;;;8.60;7.60;;;18.50;42.10;;;;;;5112604;27;20198;-77
2023/05/04 02:31:28;;;;;;;9.00;7.97;;;18.50;42.00;;;;;;5111499;27;20175;-77
2023/05/04 02:33:54;;;;;;;9.27;7.10;;;18.50;42.00;;;;;;5131809;27;20744;-76
2023/05/04 02:36:19;;;;;;;7.67;6.97;;;18.50;42.00;;;;;;5130915;27;20660;-75
2023/05/04 02:38:45;;;;;;;8.00;7.20;;;18.50;42.00;;;;;;5110732;27;20163;-75
2023/05/04 02:41:11;;;;;;;9.17;7.43;;;18.50;42.00;;;;;;5111803;27;20178;-76
2023/05/04 02:43:36;;;;;;;9.27;7.30;;;18.40;42.00;;;;;;5111630;27;20179;-76
2023/05/04 02:46:02;;;;;;;7.70;6.87;;;18.50;42.00;;;;;;5112502;27;20568;-79
2023/05/04 02:48:28;;;;;;;9.23;6.90;;;18.40;42.00;;;;;;5112725;27;20554;-75
2023/05/04 02:50:55;;;;;;;8.57;6.80;;;18.40;42.10;;;;;;5112456;27;20657;-77
2023/05/04 02:53:21;;;;;;;8.80;7.20;;;18.50;42.10;;;;;;5112570;27;20172;-78
2023/05/04 02:55:47;;;;;;;8.60;7.33;;;18.40;42.00;;;;;;5112553;27;20198;-75
2023/05/04 02:58:12;;;;;;;8.37;7.33;;;18.40;42.00;;;;;;5110845;27;20232;-76
2023/05/04 03:00:38;;;;;;;8.60;7.63;;;18.40;42.10;;;;;;5112079;27;20183;-76
2023/05/04 03:03:03;;;;;;;7.90;7.00;;;18.40;42.00;;;;;;5130556;27;20263;-78
2023/05/04 03:05:29;;;;;;;8.43;7.10;;;18.40;42.00;;;;;;5113818;27;20574;-76
2023/05/04 03:07:55;;;;;;;7.57;6.77;;;18.40;41.90;;;;;;5112208;27;20183;-75
2023/05/04 03:10:20;;;;;;;8.03;7.10;;;18.40;42.00;;;;;;5112943;27;20171;-78
2023/05/04 03:12:46;;;;;;;7.83;6.90;;;18.40;42.00;;;;;;5130929;27;20187;-78
2023/05/04 03:15:12;;;;;;;8.00;7.17;;;18.40;42.00;;;;;;5110312;27;20532;-78
2023/05/04 03:17:37;;;;;;;6.83;6.13;;;18.40;42.00;;;;;;5131774;27;20171;-75
2023/05/04 03:20:03;;;;;;;7.83;6.83;;;18.40;42.00;;;;;;5111497;27;20187;-76
2023/05/04 03:22:29;;;;;;;8.77;7.20;;;18.40;42.00;;;;;;5111994;27;20179;-74
2023/05/04 03:24:54;;;;;;;7.03;6.10;;;18.40;42.00;;;;;;5111768;27;20222;-78
2023/05/04 03:27:20;;;;;;;7.97;6.60;;;18.40;42.00;;;;;;5109200;27;25228;-75
2023/05/04 03:29:46;;;;;;;8.23;6.63;;;18.40;42.00;;;;;;5111086;27;20257;-76
2023/05/04 03:32:12;;;;;;;8.20;6.73;;;18.40;42.50;;;;;;5108868;27;20171;-78
2023/05/04 03:34:37;;;;;;;8.77;6.67;;;18.40;42.00;;;;;;5110064;27;20179;-77
2023/05/04 03:37:03;;;;;;;8.13;7.07;;;18.40;42.60;;;;;;5111318;27;20951;-74
2023/05/04 03:39:29;;;;;;;7.37;6.37;;;18.40;42.60;;;;;;5109911;27;20187;-74
2023/05/04 03:41:54;;;;;;;7.17;6.40;;;18.40;42.60;;;;;;5127901;27;20696;-76
2023/05/04 03:44:20;;;;;;;9.77;6.47;;;18.40;43.00;;;;;;5130135;27;20630;-74
2023/05/04 03:46:46;;;;;;;10.63;7.10;;;18.40;43.10;;;;;;5127676;27;20340;-74
2023/05/04 03:49:12;;;;;;;7.33;6.30;;;18.40;43.30;;;;;;5108081;27;20254;-77
2023/05/04 03:51:38;;;;;;;9.00;7.33;;;18.40;43.40;;;;;;5107788;27;20650;-77
2023/05/04 03:54:03;;;;;;;9.50;6.40;;;18.40;43.50;;;;;;5112143;27;20175;-77
2023/05/04 03:56:29;;;;;;;7.03;6.07;;;18.40;43.30;;;;;;5109575;27;20174;-73
2023/05/04 03:58:54;;;;;;;10.87;6.50;;;18.40;43.40;;;;;;5128059;27;20179;-73
2023/05/04 04:01:20;;;;;;;7.83;6.90;;;18.40;43.50;;;;;;5110023;27;20183;-74
2023/05/04 04:03:46;;;;;;;7.97;5.70;;;18.40;43.50;;;;;;5127601;27;20179;-73
2023/05/04 04:06:12;;;;;;;7.73;6.13;;;18.40;43.60;;;;;;5129103;27;20271;-73
2023/05/04 04:08:38;;;;;;;7.60;6.60;;;18.40;43.60;;;;;;5109448;27;20175;-73
2023/05/04 04:11:03;;;;;;;6.93;5.73;;;18.50;43.60;;;;;;5129179;27;20190;-74
2023/05/04 04:13:29;;;;;;;8.27;6.57;;;18.40;43.70;;;;;;5108679;27;20266;-74
2023/05/04 04:15:54;;;;;;;7.50;6.13;;;18.40;44.20;;;;;;5109178;27;20270;-74
2023/05/04 04:18:22;;;;;;;6.90;6.03;;;18.40;43.60;;;;;;5128127;27;20531;-74
2023/05/04 04:20:48;;;;;;;8.10;6.83;;;18.40;43.70;;;;;;5130020;27;20183;-73
2023/05/04 04:23:17;;;;;;;7.87;6.10;;;18.40;43.70;;;;;;5128608;27;20174;-73
2023/05/04 04:25:44;;;;;;;6.73;5.80;;;18.40;43.70;;;;;;5128563;27;20198;-73
2023/05/04 04:28:09;;;;;;;7.47;6.50;;;18.40;43.70;;;;;;5128486;27;20179;-74
2023/05/04 04:30:35;;;;;;;7.17;6.30;;;18.40;43.70;;;;;;5128076;27;20348;-73
2023/05/04 04:33:01;;;;;;;6.50;5.80;;;18.40;43.70;;;;;;5130150;27;20243;-74
2023/05/04 04:35:26;;;;;;;8.33;6.77;;;18.40;43.70;;;;;;5130221;27;20171;-74
2023/05/04 04:37:52;;;;;;;7.33;6.50;;;18.40;43.70;;;;;;5110434;27;20194;-74
2023/05/04 04:40:18;;;;;;;8.20;6.43;;;18.40;43.70;;;;;;5129187;27;20179;-73
2023/05/04 04:42:43;;;;;;;8.10;6.77;;;18.40;43.70;;;;;;5129325;27;20186;-74
2023/05/04 04:45:09;;;;;;;7.73;6.07;;;18.40;43.80;;;;;;5128548;27;20205;-73
2023/05/04 04:47:35;;;;;;;7.33;6.03;;;18.40;43.80;;;;;;5123754;27;20679;-73
2023/05/04 04:50:02;;;;;;;9.53;6.50;;;18.40;43.80;;;;;;5099081;28;20184;-73
2023/05/04 04:52:27;;;;;;;6.43;5.73;;;18.40;43.80;;;;;;5115583;27;20623;-73
2023/05/04 04:54:53;;;;;;;8.17;6.07;;;18.40;43.80;;;;;;5117747;27;20341;-73
2023/05/04 04:57:19;;;;;;;6.23;5.63;;;18.40;43.80;;;;;;5118489;27;20211;-72
2023/05/04 04:59:45;;;;;;;6.90;6.07;;;18.40;43.80;;;;;;5120268;27;20183;-73
2023/05/04 05:02:10;;;;;;;6.67;5.97;;;18.40;43.80;;;;;;5117051;27;20172;-73
2023/05/04 05:04:40;;;;;;;6.97;6.10;;;18.40;43.90;;;;;;5117252;28;20226;-73
2023/05/04 05:07:07;;;;;;;6.77;5.70;;;18.40;44.00;;;;;;5116158;28;20226;-73
2023/05/04 05:09:33;;;;;;;7.60;5.57;;;18.40;44.10;;;;;;5099862;28;20192;-73
2023/05/04 05:11:59;;;;;;;9.27;6.57;;;18.40;44.20;;;;;;5118172;28;20167;-73
2023/05/04 05:14:26;;;;;;;9.43;6.57;;;18.40;44.30;;;;;;5099674;28;20183;-73
2023/05/04 05:16:52;;;;;;;8.37;6.03;;;18.40;44.50;;;;;;5116265;28;20183;-73
2023/05/04 05:19:18;;;;;;;6.53;5.80;;;18.40;44.70;;;;;;5117050;27;20251;-73
2023/05/04 05:21:43;;;;;;;7.63;6.33;;;18.40;45.00;;;;;;5121002;27;20175;-73
2023/05/04 05:24:09;;;;;;;7.50;6.20;;;18.40;45.20;;;;;;5121267;27;20248;-74
2023/05/04 05:26:35;;;;;;;7.47;6.17;;;18.40;45.40;;;;;;5103472;27;20175;-72
2023/05/04 05:29:01;;;;;;;7.60;6.20;;;18.40;45.80;;;;;;5102157;27;20274;-73
2023/05/04 05:31:27;;;;;;;7.33;6.50;;;18.40;46.20;;;;;;5114096;27;20225;-73
2023/05/04 05:33:52;;;;;;;8.37;6.80;;;18.40;46.40;;;;;;5120959;27;20175;-73
2023/05/04 05:36:18;;;;;;;8.90;6.73;;;18.40;46.60;;;;;;5119627;27;20650;-73
2023/05/04 05:38:44;;;;;;;8.53;7.27;;;18.40;46.90;;;;;;5122036;27;20169;-73
2023/05/04 05:41:10;;;;;;;8.27;6.77;;;18.40;47.10;;;;;;5102889;27;20631;-74
2023/05/04 05:43:37;;;;;;;8.60;7.13;;;18.40;47.40;;;;;;5103434;27;20214;-74
2023/05/04 05:46:04;;;;;;;10.97;7.53;;;18.40;47.80;;;;;;5120556;27;20203;-74
2023/05/04 05:48:29;;;;;;;8.93;6.93;;;18.50;47.90;;;;;;5130251;27;20253;-73
2023/05/04 05:50:55;;;;;;;8.63;7.17;;;18.50;48.20;;;;;;5131891;27;20222;-73
2023/05/04 05:53:20;;;;;;;9.17;7.23;;;18.50;48.80;;;;;;5110551;27;20601;-77
2023/05/04 05:55:46;;;;;;;13.77;7.70;;;18.50;49.00;;;;;;5110394;27;20867;-79
2023/05/04 05:58:12;;;;;;;10.63;7.73;;;18.60;50.10;;;;;;5108905;27;20192;-79
2023/05/04 06:00:38;;;;;;;12.03;9.33;;;18.70;49.10;;;;;;5107431;27;20186;-77
2023/05/04 06:03:03;;;;;;;13.80;9.23;;;18.70;49.00;;;;;;5112045;27;20174;-78
2023/05/04 06:05:29;;;;;;;10.17;7.93;;;18.70;49.50;;;;;;5110541;27;20202;-76
2023/05/04 06:07:55;;;;;;;12.60;8.73;;;18.60;49.20;;;;;;5129247;27;20179;-76
2023/05/04 06:10:21;;;;;;;13.00;9.10;;;18.70;49.40;;;;;;5129863;27;20643;-76
2023/05/04 06:12:46;;;;;;;8.33;7.47;;;18.70;49.70;;;;;;5129777;27;20274;-74
2023/05/04 06:15:13;;;;;;;10.50;8.23;;;18.70;49.70;;;;;;5132725;27;20175;-76
2023/05/04 06:17:39;;;;;;;10.00;7.73;;;18.70;49.40;;;;;;5140586;27;20219;-76
2023/05/04 06:20:06;;;;;;;10.67;7.97;;;18.70;49.50;;;;;;5129178;27;20238;-77
2023/05/04 06:22:31;;;;;;;8.83;7.60;;;18.80;49.10;;;;;;5110204;27;20175;-77
2023/05/04 06:24:57;;;;;;;10.03;7.23;;;18.80;49.00;;;;;;5111193;27;20269;-77
2023/05/04 06:27:24;;;;;;;10.43;7.60;;;18.80;48.80;;;;;;5111404;27;20615;-76
2023/05/04 06:29:50;;;;;;;9.80;7.23;;;18.80;48.80;;;;;;5112267;27;21333;-77
2023/05/04 06:32:16;;;;;;;7.50;6.37;;;18.80;48.50;;;;;;5128088;27;20187;-76
2023/05/04 06:34:42;;;;;;;8.63;7.00;;;18.80;48.30;;;;;;5110415;27;20450;-76
2023/05/04 06:37:07;;;;;;;8.10;6.70;;;18.80;48.10;;;;;;5129184;27;20184;-76
2023/05/04 06:39:33;;;;;;;7.20;6.23;;;18.90;48.10;;;;;;5111930;27;20833;-77
2023/05/04 06:41:59;;;;;;;7.53;6.30;;;18.90;48.00;;;;;;5113184;27;20182;-77
2023/05/04 06:44:24;;;;;;;8.77;6.23;;;18.90;47.90;;;;;;5110942;27;20282;-76
2023/05/04 06:46:50;;;;;;;6.83;6.00;;;18.90;47.80;;;;;;5128518;27;20227;-77
2023/05/04 06:49:16;;;;;;;8.23;5.17;;;19.00;47.70;;;;;;5129704;27;20627;-76
2023/05/04 06:51:42;;;;;;;6.53;5.80;;;19.00;47.60;;;;;;5111907;27;20224;-77
2023/05/04 06:54:08;;;;;;;7.80;5.80;;;19.00;47.50;;;;;;5132631;27;20556;-76
2023/05/04 06:56:34;;;;;;;8.77;6.17;;;19.00;47.40;;;;;;5110241;27;20178;-77
2023/05/04 06:59:00;;;;;;;7.97;6.27;;;19.00;47.30;;;;;;5109759;27;20172;-75
2023/05/04 07:01:26;;;;;;;8.10;6.73;;;19.00;47.20;;;;;;5112410;27;20224;-75
2023/05/04 07:03:52;;;;;;;8.73;5.80;;;19.10;47.30;;;;;;5110595;27;20179;-74
2023/05/04 07:06:18;;;;;;;8.63;6.40;;;19.10;47.10;;;;;;5131875;27;20290;-77
2023/05/04 07:08:44;;;;;;;7.00;5.90;;;19.10;47.10;;;;;;5129485;27;20208;-76
2023/05/04 07:11:10;;;;;;;7.30;6.10;;;19.10;47.10;;;;;;5129323;27;20171;-74
2023/05/04 07:13:37;;;;;;;7.30;5.77;;;19.10;46.90;;;;;;5127104;27;20182;-75
2023/05/04 07:16:06;;;;;;;7.63;5.33;;;19.10;46.90;;;;;;5111686;27;20214;-76
2023/05/04 07:18:31;;;;;;;7.87;6.47;;;19.10;46.80;;;;;;5128684;27;20181;-76
2023/05/04 07:20:57;;;;;;;6.27;5.63;;;19.10;46.80;;;;;;5111903;27;20167;-76
2023/05/04 07:23:23;;;;;;;8.67;5.30;;;19.10;47.30;;;;;;5127266;27;20860;-79
2023/05/04 07:25:48;;;;;;;6.77;6.00;;;19.10;46.70;;;;;;5109896;27;20210;-76
2023/05/04 07:28:15;;;;;;;10.03;6.47;;;19.10;46.70;;;;;;5110659;27;20175;-76
2023/05/04 07:30:41;;;;;;;11.20;8.97;;;19.10;46.00;;;;;;5128280;27;20607;-77
2023/05/04 07:33:06;;;;;;;11.77;9.50;;;19.20;43.90;;;;;;5131498;27;20167;-76
2023/05/04 07:35:32;;;;;;;10.40;8.13;;;19.20;43.50;;;;;;5109125;27;20175;-79
2023/05/04 07:37:57;;;;;;;10.77;8.67;;;19.20;43.00;;;;;;5128028;27;20171;-76
2023/05/04 07:40:24;;;;;;;12.67;8.33;;;19.20;42.60;;;;;;5129058;27;20210;-76
2023/05/04 07:42:49;;;;;;;10.70;8.20;;;19.20;42.30;;;;;;5129122;27;20224;-75
2023/05/04 07:45:16;;;;;;;9.17;8.20;;;19.20;42.70;;;;;;5139130;27;20203;-75
2023/05/04 07:47:41;;;;;;;10.83;7.63;;;19.20;42.20;;;;;;5127829;27;20226;-75
2023/05/04 07:50:08;;;;;;;10.53;7.93;;;19.30;42.10;;;;;;5110273;27;20728;-77
2023/05/04 07:52:33;;;;;;;12.33;7.37;;;19.30;41.70;;;;;;5128057;27;20217;-75
2023/05/04 07:54:59;;;;;;;9.47;7.20;;;19.30;41.30;;;;;;5128301;27;20236;-76
2023/05/04 07:57:25;;;;;;;8.43;6.90;;;19.30;41.30;;;;;;5130857;27;20171;-75
2023/05/04 07:59:54;;;;;;;9.83;7.30;;;19.30;41.00;;;;;;5109696;27;20206;-75
2023/05/04 08:02:20;;;;;;;10.37;5.93;;;19.30;40.70;;;;;;5126152;27;20198;-77
2023/05/04 08:04:46;;;;;;;7.73;5.80;;;19.30;40.50;;;;;;5126154;27;20207;-77
2023/05/04 08:07:14;;;;;;;6.60;4.47;;;19.30;38.40;;;;;;5126865;27;20191;-79
2023/05/04 08:09:39;;;;;;;4.30;3.30;;;19.30;38.00;;;;;;5135577;27;20171;-77
2023/05/04 08:12:06;;;;;;;5.50;4.07;;;19.30;36.70;;;;;;5130598;27;20175;-78
2023/05/04 08:14:32;;;;;;;8.23;4.20;;;19.30;37.40;;;;;;5109044;27;20182;-77
2023/05/04 08:16:58;;;;;;;4.80;4.30;;;19.30;37.60;;;;;;5109324;27;20270;-77
2023/05/04 08:19:24;;;;;;;7.53;4.77;;;19.30;37.80;;;;;;5128127;27;20741;-76
2023/05/04 08:21:49;;;;;;;5.80;4.43;;;19.30;38.10;;;;;;5107164;27;20191;-76
2023/05/04 08:24:17;;;;;;;6.07;4.90;;;19.30;37.60;;;;;;5129573;27;20246;-77
2023/05/04 08:26:42;;;;;;;7.80;5.20;;;19.20;38.30;;;;;;5109236;27;20533;-76
2023/05/04 08:29:09;;;;;;;9.80;4.87;;;19.20;37.10;;;;;;5126840;27;20201;-76
2023/05/04 08:31:35;;;;;;;5.43;4.47;;;19.30;37.70;;;;;;5107650;27;20479;-75
2023/05/04 08:34:02;;;;;;;7.70;5.10;;;19.30;37.90;;;;;;5105675;27;20191;-76
2023/05/04 08:36:28;;;;;;;8.47;5.03;;;19.30;38.00;;;;;;5130752;27;20159;-76
2023/05/04 08:38:54;;;;;;;8.40;5.27;;;19.40;38.00;;;;;;5125729;27;20175;-75
2023/05/04 08:41:20;;;;;;;5.00;4.50;;;19.40;38.40;;;;;;5108682;27;20263;-74
2023/05/04 08:43:48;;;;;;;6.90;5.87;;;19.30;38.60;;;;;;5127049;27;20177;-76
2023/05/04 08:46:15;;;;;;;7.67;5.37;;;19.30;38.60;;;;;;5126803;27;20616;-74
2023/05/04 08:48:43;;;;;;;7.23;5.23;;;19.40;38.60;;;;;;5129593;27;20597;-75
2023/05/04 08:51:09;;;;;;;5.83;4.47;;;19.40;39.00;;;;;;5111929;27;20233;-76
2023/05/04 08:53:38;;;;;;;5.77;4.63;;;19.40;39.20;;;;;;5128081;27;20224;-75
2023/05/04 08:56:08;;;;;;;6.23;4.63;;;19.40;39.10;;;;;;5108850;28;20186;-76
2023/05/04 08:58:36;;;;;;;6.00;4.67;;;19.40;39.30;;;;;;5110044;27;20206;-76
2023/05/04 09:01:05;;;;;;;6.73;5.23;;;19.40;39.30;;;;;;5110222;27;20179;-77
2023/05/04 09:03:31;;;;;;;6.13;4.43;;;19.40;39.20;;;;;;5128622;27;20173;-76
2023/05/04 09:05:58;;;;;;;7.17;4.97;;;19.40;39.20;;;;;;5126665;28;21558;-76
2023/05/04 09:08:23;;;;;;;6.80;5.20;;;19.40;39.30;;;;;;5127432;28;20263;-76
2023/05/04 09:10:49;;;;;;;8.43;4.67;;;19.40;39.20;;;;;;5110963;28;20290;-77
2023/05/04 09:13:15;;;;;;;6.03;4.40;;;19.40;39.00;;;;;;5128224;27;20640;-74
2023/05/04 09:15:41;;;;;;;6.00;4.03;;;19.40;39.00;;;;;;5109713;28;20175;-73
2023/05/04 09:18:10;;;;;;;9.43;3.97;;;19.40;39.20;;;;;;5126452;28;20258;-80
2023/05/04 09:20:45;;;;;;;5.30;4.60;;;19.40;39.00;;;;;;5105371;28;20183;-76
2023/05/04 09:23:13;;;;;;;5.60;4.27;;;19.40;39.10;;;;;;5126076;28;20182;-76
2023/05/04 09:25:48;;;;;;;5.73;3.97;;;19.40;39.00;;;;;;5127095;28;20222;-77
2023/05/04 09:28:15;;;;;;;5.03;3.10;;;19.40;38.90;;;;;;5110776;28;20325;-76
2023/05/04 09:30:41;;;;;;;4.40;3.10;;;19.40;35.80;;;;;;5128636;28;20155;-76
2023/05/04 09:33:07;;;;;;;3.67;2.70;;;19.40;35.90;;;;;;5129441;28;20525;-77
2023/05/04 09:35:33;;;;;;;4.53;2.93;;;19.40;35.50;;;;;;5125142;28;20195;-77
2023/05/04 09:37:58;;;;;;;3.60;2.90;;;19.40;36.00;;;;;;5110908;28;20253;-80
2023/05/04 09:40:34;;;;;;;4.20;3.17;;;19.30;35.20;;;;;;5110875;28;20223;-80
2023/05/04 09:43:00;;;;;;;8.37;2.67;;;19.30;33.90;;;;;;5109624;28;20208;-78
2023/05/04 09:45:37;;;;;;;4.23;2.80;;;19.30;35.20;;;;;;5110648;28;20199;-76
2023/05/04 09:48:27;;;;;;;6.73;3.17;;;19.30;35.70;;;;;;5109807;28;20577;-75
2023/05/04 09:50:55;;;;;;;11.53;4.40;;;19.40;36.40;;;;;;5108438;28;20247;-76
2023/05/04 09:53:23;;;;;;;9.37;3.77;;;19.40;36.50;;;;;;5126374;28;20262;-75
2023/05/04 09:55:56;;;;;;;8.97;4.00;;;19.30;35.90;;;;;;5126292;28;20179;-74
2023/05/04 09:58:23;;;;;;;27.40;5.03;;;19.40;36.40;;;;;;5126971;28;20187;-75
2023/05/04 10:00:49;;;;;;;22.83;5.57;;;19.40;36.50;;;;;;5110058;28;20232;-75
2023/05/04 10:03:15;;;;;;;21.63;5.10;;;19.40;36.80;;;;;;5110986;28;20635;-74
2023/05/04 10:05:41;;;;;;;20.60;4.30;;;19.40;36.90;;;;;;5126286;27;20199;-75
2023/05/04 10:08:07;;;;;;;10.53;4.03;;;19.40;37.00;;;;;;5130690;27;20187;-75
2023/05/04 10:10:34;;;;;;;11.80;4.47;;;19.40;37.00;;;;;;5113827;27;20234;-74
2023/05/04 10:13:00;;;;;;;12.60;5.77;;;19.40;37.10;;;;;;5113862;27;20167;-73
2023/05/04 10:15:27;;;;;;;14.67;5.93;;;19.40;37.20;;;;;;5132289;27;20174;-74
2023/05/04 10:18:17;;;;;;;8.43;4.63;;;19.40;37.30;;;;;;5113153;27;20639;-76
2023/05/04 10:21:17;;;;;;;9.17;4.97;;;19.40;37.30;;;;;;5112001;27;20179;-75
2023/05/04 10:23:58;;;;;;;6.23;4.17;;;19.40;37.40;;;;;;5130591;27;20182;-75
2023/05/04 10:26:52;;;;;;;7.73;4.70;;;19.40;37.50;;;;;;5131133;27;20210;-75
2023/05/04 10:29:23;;;;;;;4.73;3.77;;;19.40;37.50;;;;;;5113208;27;20267;-76
2023/05/04 10:31:49;;;;;;;11.67;3.90;;;19.40;37.60;;;;;;5111412;27;20190;-79
2023/05/04 10:34:34;;;;;;;5.90;3.30;;;19.40;37.40;;;;;;5107325;27;20707;-76
2023/05/04 10:37:01;;;;;;;8.97;4.17;;;19.40;37.50;;;;;;5129706;27;20194;-76
2023/05/04 10:39:33;;;;;;;4.73;4.03;;;19.40;37.60;;;;;;5131299;27;20180;-76
2023/05/04 10:41:59;;;;;;;6.43;4.10;;;19.40;37.80;;;;;;5127410;27;20167;-79
2023/05/04 10:44:26;;;;;;;4.33;3.47;;;19.40;37.80;;;;;;5111387;27;20561;-80
2023/05/04 10:47:08;;;;;;;7.07;3.50;;;19.40;35.40;;;;;;5111398;27;20307;-76
2023/05/04 10:49:34;;;;;;;4.33;3.40;;;19.40;33.90;;;;;;5112570;27;20183;-79
2023/05/04 10:52:11;;;;;;;7.13;4.13;;;19.30;33.40;;;;;;5130196;27;20179;-78
2023/05/04 10:54:40;;;;;;;5.53;3.77;;;19.30;34.80;;;;;;5112195;27;20223;-78
2023/05/04 10:57:12;;;;;;;5.77;4.10;;;19.30;35.00;;;;;;5110102;27;20190;-77
2023/05/04 10:59:39;;;;;;;7.50;4.33;;;19.30;32.90;;;;;;5144721;27;20265;-77
2023/05/04 11:02:06;;;;;;;7.10;4.33;;;19.30;36.20;;;;;;5127721;27;20175;-76
2023/05/04 11:04:32;;;;;;;6.73;4.70;;;19.30;37.40;;;;;;5111201;27;20343;-78
2023/05/04 11:07:04;;;;;;;13.57;5.53;;;19.30;38.50;;;;;;5113110;27;21320;-75
2023/05/04 11:09:36;;;;;;;10.13;6.07;;;19.40;38.70;;;;;;5129983;27;20623;-75
2023/05/04 11:12:02;;;;;;;7.50;5.63;;;19.30;38.20;;;;;;5129150;27;20171;-76
2023/05/04 11:14:28;;;;;;;7.60;4.97;;;19.30;37.50;;;;;;5110385;27;20209;-76
2023/05/04 11:17:14;;;;;;;10.50;6.43;;;19.30;37.10;;;;;;5112036;27;20191;-76
2023/05/04 11:20:07;;;;;;;6.00;4.90;;;19.30;37.00;;;;;;5111012;27;20240;-76
2023/05/04 11:22:32;;;;;;;6.80;4.10;;;19.30;37.00;;;;;;5110099;27;20223;-75
2023/05/04 11:24:58;;;;;;;6.30;4.50;;;19.30;34.80;;;;;;5131632;27;20227;-75
2023/05/04 11:27:24;;;;;;;4.93;3.67;;;19.30;36.20;;;;;;5112335;27;20200;-74
2023/05/04 11:29:58;;;;;;;5.77;3.50;;;19.30;33.80;;;;;;5111643;27;20179;-76
2023/05/04 11:32:34;;;;;;;3.53;3.17;;;19.30;35.80;;;;;;5129146;27;20187;-75
2023/05/04 11:35:00;;;;;;;4.77;3.43;;;19.20;33.10;;;;;;5128874;27;20194;-75
2023/05/04 11:37:30;;;;;;;4.83;3.03;;;19.30;35.70;;;;;;5110853;27;20167;-73
2023/05/04 11:39:57;;;;;;;5.97;3.43;;;19.20;34.70;;;;;;5112185;27;20524;-73
2023/05/04 11:42:23;;;;;;;34.53;27.63;;;19.20;33.20;;;;;;5128048;27;20254;-74
2023/05/04 11:44:50;;;;;;;52.17;38.93;;;19.20;32.40;;;;;;5128001;27;20207;-74
2023/05/04 11:47:16;;;;;;;249.50;178.97;;;19.10;33.10;;;;;;5110717;27;20215;-76
2023/05/04 11:49:43;;;;;;;175.80;129.93;;;19.20;34.40;;;;;;5128104;27;20175;-74
2023/05/04 11:52:09;;;;;;;231.83;167.00;;;19.20;33.50;;;;;;5112875;27;20171;-76
2023/05/04 11:54:38;;;;;;;179.30;131.57;;;19.10;35.20;;;;;;5111008;27;20222;-73
2023/05/04 11:57:04;;;;;;;113.87;87.93;;;19.20;33.30;;;;;;5111914;27;20175;-75
2023/05/04 11:59:30;;;;;;;83.07;62.20;;;19.20;32.90;;;;;;5128295;27;20642;-73
2023/05/04 12:01:56;;;;;;;90.93;65.53;;;19.20;32.30;;;;;;5128687;27;20179;-74
2023/05/04 12:04:22;;;;;;;80.70;60.30;;;19.20;32.90;;;;;;5112095;27;20181;-75
2023/05/04 12:06:48;;;;;;;80.70;60.00;;;19.10;33.20;;;;;;5112688;27;20245;-75
2023/05/04 12:09:15;;;;;;;125.93;86.33;;;19.10;32.20;;;;;;5128358;27;20174;-74
2023/05/04 12:11:40;;;;;;;130.30;95.50;;;19.10;34.00;;;;;;5126736;27;20198;-74
2023/05/04 12:14:08;;;;;;;144.63;106.53;;;19.10;34.50;;;;;;5127469;27;20558;-74
2023/05/04 12:16:35;;;;;;;72.90;52.50;;;19.20;34.90;;;;;;5127259;27;20175;-75
2023/05/04 12:19:11;;;;;;;40.63;30.27;;;19.20;31.90;;;;;;5112436;27;20193;-76
2023/05/04 12:21:48;;;;;;;51.63;38.33;;;19.10;31.00;;;;;;5109633;27;20194;-74
2023/05/04 12:24:14;;;;;;;80.97;60.67;;;19.10;33.40;;;;;;5126349;27;20181;-73
2023/05/04 12:26:41;;;;;;;116.57;85.27;;;19.10;34.20;;;;;;5129168;27;20171;-74
2023/05/04 12:29:06;;;;;;;114.60;88.40;;;19.20;35.20;;;;;;5127637;27;20191;-74
2023/05/04 12:31:32;;;;;;;119.13;87.63;;;19.20;35.50;;;;;;5128742;27;20656;-73
2023/05/04 12:33:58;;;;;;;53.87;40.50;;;19.20;36.00;;;;;;5110878;27;20171;-74
2023/05/04 12:36:23;;;;;;;55.37;39.50;;;19.20;33.70;;;;;;5127462;27;20227;-73
2023/05/04 12:38:49;;;;;;;74.70;55.23;;;19.20;35.10;;;;;;5127285;27;20192;-74
2023/05/04 12:41:15;;;;;;;71.40;51.47;;;19.20;35.50;;;;;;5126870;27;20178;-75
2023/05/04 12:43:41;;;;;;;43.30;34.50;;;19.20;35.00;;;;;;5107678;28;20178;-76